createdAt,value
2022-12-08T00:01:21.211Z,4.28
2022-12-08T00:03:49.677Z,2.47
2022-12-08T00:06:42.072Z,3.75
2022-12-08T00:09:23.443Z,2.50
2022-12-08T00:11:57.070Z,7.43
2022-12-08T00:14:27.576Z,9.27
2022-12-08T00:16:55.674Z,4.82
2022-12-08T00:19:24.570Z,5.25
2022-12-08T00:21:54.870Z,4.80
2022-12-08T00:24:23.800Z,4.90
2022-12-08T00:26:51.760Z,6.55
2022-12-08T00:29:19.698Z,9.38
2022-12-08T00:31:47.744Z,6.10
2022-12-08T00:34:16.338Z,3.88
2022-12-08T00:36:44.693Z,2.38
2022-12-08T00:39:15.357Z,7.05
2022-12-08T00:42:00.444Z,4.45
2022-12-08T00:44:28.446Z,3.08
2022-12-08T00:46:56.178Z,6.55
2022-12-08T00:49:24.815Z,5.47
2022-12-08T00:51:52.910Z,2.10
2022-12-08T00:54:23.010Z,2.58
2022-12-08T00:56:50.771Z,4.70
2022-12-08T00:59:19.271Z,3.10
2022-12-08T01:01:47.156Z,4.25
2022-12-08T01:04:16.898Z,3.17
2022-12-08T01:06:45.626Z,1.25
2022-12-08T01:09:15.843Z,4.85
2022-12-08T01:11:46.273Z,1.98
2022-12-08T01:14:14.568Z,5.55
2022-12-08T01:16:43.159Z,5.43
2022-12-08T01:19:12.125Z,6.20
2022-12-08T01:21:41.026Z,2.83
2022-12-08T01:24:12.122Z,2.10
2022-12-08T01:26:40.099Z,8.68
2022-12-08T01:29:09.552Z,6.18
2022-12-08T01:31:37.813Z,7.07
2022-12-08T01:34:06.081Z,6.22
2022-12-08T01:36:37.113Z,4.35
2022-12-08T01:39:06.940Z,8.93
2022-12-08T01:41:36.309Z,7.45
2022-12-08T01:44:25.074Z,8.43
2022-12-08T01:46:55.286Z,8.10
2022-12-08T01:49:27.765Z,7.60
2022-12-08T01:51:59.990Z,7.57
2022-12-08T01:54:31.767Z,4.10
2022-12-08T01:57:03.971Z,3.90
2022-12-08T01:59:34.729Z,3.83
2022-12-08T02:02:03.939Z,5.32
2022-12-08T02:04:31.718Z,6.45
2022-12-08T02:07:04.947Z,7.05
2022-12-08T02:09:36.671Z,7.03
2022-12-08T02:12:05.150Z,7.35
2022-12-08T02:14:32.943Z,7.65
2022-12-08T02:17:11.169Z,7.72
2022-12-08T02:20:08.119Z,7.10
2022-12-08T02:22:45.932Z,6.13
2022-12-08T02:25:22.423Z,8.65
2022-12-08T02:28:01.644Z,4.07
2022-12-08T02:30:39.064Z,4.35
2022-12-08T02:34:03.429Z,3.10
2022-12-08T02:36:39.223Z,4.07
2022-12-08T02:39:21.992Z,4.70
2022-12-08T02:41:55.576Z,4.90
2022-12-08T02:44:31.019Z,3.33
2022-12-08T02:47:03.127Z,5.57
2022-12-08T02:49:33.510Z,7.22
2022-12-08T02:52:08.898Z,7.53
2022-12-08T02:54:37.731Z,5.65
2022-12-08T02:57:23.303Z,6.55
2022-12-08T03:00:05.103Z,4.38
2022-12-08T03:02:44.739Z,6.40
2022-12-08T03:05:28.829Z,5.45
2022-12-08T03:08:03.906Z,5.65
2022-12-08T03:10:36.720Z,2.17
2022-12-08T03:13:10.642Z,5.20
2022-12-08T03:15:40.429Z,5.28
2022-12-08T03:18:10.932Z,6.25
2022-12-08T03:20:41.570Z,6.95
2022-12-08T03:23:12.387Z,1.98
2022-12-08T03:25:47.732Z,5.50
2022-12-08T03:28:15.812Z,5.68
2022-12-08T03:30:47.049Z,6.63
2022-12-08T03:33:19.691Z,3.47
2022-12-08T03:35:49.275Z,5.47
2022-12-08T03:38:18.688Z,8.63
2022-12-08T03:41:07.899Z,6.30
2022-12-08T03:43:35.657Z,7.55
2022-12-08T03:46:03.448Z,6.75
2022-12-08T03:48:31.182Z,6.68
2022-12-08T03:51:00.253Z,6.13
2022-12-08T03:53:28.131Z,6.50
2022-12-08T03:55:55.849Z,6.22
2022-12-08T03:58:23.581Z,6.88
2022-12-08T04:00:51.391Z,7.25
2022-12-08T04:03:19.174Z,7.20
2022-12-08T04:05:47.561Z,6.30
2022-12-08T04:08:16.723Z,7.35
2022-12-08T04:10:44.568Z,5.75
2022-12-08T04:13:12.392Z,6.15
2022-12-08T04:15:40.104Z,6.68
2022-12-08T04:18:07.921Z,6.45
2022-12-08T04:20:35.603Z,6.00
2022-12-08T04:23:03.370Z,6.97
2022-12-08T04:25:32.664Z,5.90
2022-12-08T04:28:00.409Z,6.68
2022-12-08T04:30:28.220Z,6.95
2022-12-08T04:32:55.956Z,7.43
2022-12-08T04:35:23.870Z,6.13
2022-12-08T04:37:51.852Z,5.35
2022-12-08T04:40:19.882Z,5.65
2022-12-08T04:42:48.980Z,6.28
2022-12-08T04:45:16.809Z,6.55
2022-12-08T04:47:44.692Z,6.75
2022-12-08T04:50:13.102Z,6.93
2022-12-08T04:52:41.336Z,7.32
2022-12-08T04:55:09.920Z,5.28
2022-12-08T04:57:37.919Z,7.13
2022-12-08T05:00:08.443Z,6.30
2022-12-08T05:02:36.740Z,6.32
2022-12-08T05:05:05.104Z,6.93
2022-12-08T05:07:33.009Z,7.70
2022-12-08T05:10:00.853Z,6.63
2022-12-08T05:12:28.759Z,8.30
2022-12-08T05:14:56.475Z,7.55
2022-12-08T05:17:25.529Z,7.90
2022-12-08T05:19:53.324Z,7.28
2022-12-08T05:22:21.080Z,6.57
2022-12-08T05:24:48.804Z,7.60
2022-12-08T05:27:17.031Z,8.55
2022-12-08T05:29:44.723Z,6.85
2022-12-08T05:32:12.460Z,8.10
2022-12-08T05:34:41.629Z,7.07
2022-12-08T05:37:09.636Z,6.55
2022-12-08T05:39:37.475Z,8.65
2022-12-08T05:42:05.571Z,7.65
2022-12-08T05:44:33.356Z,7.00
2022-12-08T05:47:01.099Z,5.88
2022-12-08T05:49:28.863Z,6.32
2022-12-08T05:51:57.944Z,6.78
2022-12-08T05:54:25.676Z,5.90
2022-12-08T05:56:53.381Z,6.72
2022-12-08T05:59:21.146Z,6.28
2022-12-08T06:01:48.934Z,7.13
2022-12-08T06:04:16.718Z,6.05
2022-12-08T06:06:44.475Z,6.60
2022-12-08T06:09:13.640Z,8.93
2022-12-08T06:11:41.372Z,8.57
2022-12-08T06:14:12.061Z,7.45
2022-12-08T06:16:39.964Z,6.25
2022-12-08T06:19:07.877Z,5.90
2022-12-08T06:21:35.619Z,6.57
2022-12-08T06:24:03.323Z,6.28
2022-12-08T06:26:32.410Z,5.65
2022-12-08T06:29:01.096Z,5.57
2022-12-08T06:31:29.264Z,5.97
2022-12-08T06:33:57.232Z,5.28
2022-12-08T06:36:27.836Z,5.22
2022-12-08T06:38:55.684Z,7.07
2022-12-08T06:41:23.856Z,3.33
2022-12-08T06:43:53.090Z,5.28
2022-12-08T06:46:21.626Z,9.02
2022-12-08T06:48:50.582Z,6.80
2022-12-08T06:51:21.156Z,5.78
2022-12-08T06:53:48.908Z,5.68
2022-12-08T06:56:19.947Z,5.70
2022-12-08T06:58:52.523Z,6.28
2022-12-08T07:01:22.283Z,5.53
2022-12-08T07:03:50.088Z,6.47
2022-12-08T07:06:21.616Z,6.97
2022-12-08T07:08:49.353Z,6.13
2022-12-08T07:11:21.582Z,6.75
2022-12-08T07:13:50.261Z,11.75
2022-12-08T07:16:18.090Z,9.57
2022-12-08T07:18:47.392Z,7.55
2022-12-08T07:21:17.551Z,8.68
2022-12-08T07:23:50.167Z,7.30
2022-12-08T07:26:21.945Z,6.28
2022-12-08T07:28:49.683Z,7.45
2022-12-08T07:31:19.982Z,9.13
2022-12-08T07:33:50.202Z,6.38
2022-12-08T07:36:18.011Z,6.35
2022-12-08T07:38:47.303Z,9.25
2022-12-08T07:41:21.676Z,5.57
2022-12-08T07:43:51.498Z,6.63
2022-12-08T07:46:21.932Z,7.75
2022-12-08T07:48:52.417Z,7.07
2022-12-08T07:51:20.422Z,7.45
2022-12-08T07:53:54.263Z,7.75
2022-12-08T07:56:23.194Z,7.20
2022-12-08T07:58:50.907Z,6.07
2022-12-08T08:01:26.567Z,7.70
2022-12-08T08:03:57.683Z,6.13
2022-12-08T08:06:25.811Z,2.35
2022-12-08T08:08:53.581Z,7.95
2022-12-08T08:11:22.069Z,8.93
2022-12-08T08:13:50.376Z,7.22
2022-12-08T08:16:19.217Z,5.78
2022-12-08T08:18:48.869Z,5.47
2022-12-08T08:21:44.301Z,6.13
2022-12-08T08:24:08.647Z,6.85
2022-12-08T08:26:36.879Z,5.05
2022-12-08T08:29:05.213Z,5.63
2022-12-08T08:31:33.068Z,4.75
2022-12-08T08:34:04.925Z,6.20
2022-12-08T08:36:34.359Z,5.93
2022-12-08T08:39:04.330Z,7.07
2022-12-08T08:41:32.598Z,4.53
2022-12-08T08:44:00.333Z,5.20
2022-12-08T08:46:28.191Z,5.57
2022-12-08T08:48:56.133Z,5.30
2022-12-08T08:51:24.126Z,5.38
2022-12-08T08:53:53.374Z,5.68
2022-12-08T08:56:21.235Z,6.18
2022-12-08T08:58:50.100Z,4.50
2022-12-08T09:01:18.677Z,5.55
2022-12-08T09:03:46.795Z,4.85
2022-12-08T09:06:15.943Z,6.10
2022-12-08T09:08:44.376Z,5.35
2022-12-08T09:11:13.691Z,3.92
2022-12-08T09:13:41.561Z,5.38
2022-12-08T09:16:12.388Z,3.80
2022-12-08T09:18:40.257Z,5.30
2022-12-08T09:21:10.266Z,5.20
2022-12-08T09:23:38.121Z,8.27
2022-12-08T09:26:06.599Z,3.05
2022-12-08T09:28:35.872Z,5.57
2022-12-08T09:31:03.973Z,5.35
2022-12-08T09:33:32.182Z,4.93
2022-12-08T09:36:03.963Z,4.30
2022-12-08T09:38:32.542Z,5.10
2022-12-08T09:41:01.313Z,4.63
2022-12-08T09:43:48.321Z,3.83
2022-12-08T09:46:19.326Z,5.40
2022-12-08T09:48:55.991Z,5.03
2022-12-08T09:51:26.076Z,4.25
2022-12-08T09:53:57.661Z,5.28
2022-12-08T09:56:30.005Z,4.07
2022-12-08T09:59:02.591Z,3.65
2022-12-08T10:01:33.101Z,3.40
2022-12-08T10:04:01.991Z,4.65
2022-12-08T10:06:34.492Z,3.53
2022-12-08T10:09:21.200Z,3.22
2022-12-08T10:11:56.734Z,4.95
2022-12-08T10:14:31.139Z,3.08
2022-12-08T10:19:30.912Z,4.70
2022-12-08T10:21:59.030Z,3.47
2022-12-08T10:24:32.723Z,3.78
2022-12-08T10:27:01.383Z,5.10
2022-12-08T10:29:30.558Z,4.50
2022-12-08T10:32:00.628Z,4.30
2022-12-08T10:34:28.455Z,4.18
2022-12-08T10:36:58.934Z,3.33
2022-12-08T10:39:38.368Z,4.45
2022-12-08T10:42:10.608Z,4.32
2022-12-08T10:44:54.466Z,2.97
2022-12-08T10:47:24.100Z,3.97
2022-12-08T10:50:09.516Z,5.45
2022-12-08T10:52:41.220Z,5.13
2022-12-08T10:55:16.181Z,5.05
2022-12-08T10:57:43.980Z,4.57
2022-12-08T11:00:16.660Z,3.20
2022-12-08T11:02:59.616Z,4.40
2022-12-08T11:05:30.489Z,4.25
2022-12-08T11:07:58.929Z,5.00
2022-12-08T11:10:37.994Z,1.85
2022-12-08T11:13:11.504Z,3.88
2022-12-08T11:15:41.526Z,3.88
2022-12-08T11:18:23.236Z,2.72
2022-12-08T11:21:01.221Z,4.75
2022-12-08T11:23:30.359Z,2.78
2022-12-08T11:26:06.038Z,4.82
2022-12-08T11:28:33.955Z,3.33
2022-12-08T11:31:14.268Z,5.25
2022-12-08T11:33:43.894Z,2.40
2022-12-08T11:36:16.578Z,5.00
2022-12-08T11:38:48.247Z,4.70
2022-12-08T11:41:18.860Z,4.35
2022-12-08T11:43:54.128Z,3.78
2022-12-08T11:46:27.895Z,2.03
2022-12-08T11:49:06.395Z,3.80
2022-12-08T11:51:38.596Z,4.60
2022-12-08T11:54:14.851Z,3.90
2022-12-08T11:56:46.212Z,3.28
2022-12-08T11:59:23.009Z,2.30
2022-12-08T12:01:52.497Z,3.97
2022-12-08T12:04:25.755Z,4.10
2022-12-08T12:07:26.779Z,3.50
2022-12-08T12:10:26.501Z,4.72
2022-12-08T12:13:06.094Z,3.63
2022-12-08T12:16:06.664Z,3.35
2022-12-08T12:18:40.257Z,3.72
2022-12-08T12:21:13.462Z,5.43
2022-12-08T12:23:45.391Z,4.43
2022-12-08T12:26:20.936Z,1.65
2022-12-08T12:28:53.079Z,4.43
2022-12-08T12:31:25.152Z,4.50
2022-12-08T12:33:56.600Z,3.45
2022-12-08T12:36:25.731Z,4.88
2022-12-08T12:39:03.218Z,2.65
2022-12-08T12:41:37.817Z,2.95
2022-12-08T12:44:24.398Z,5.65
2022-12-08T12:46:58.401Z,3.80
2022-12-08T12:50:07.764Z,2.83
2022-12-08T12:52:46.747Z,2.10
2022-12-08T12:55:22.481Z,3.92
2022-12-08T12:57:53.471Z,5.38
2022-12-08T13:00:23.042Z,3.40
2022-12-08T13:02:52.838Z,5.25
2022-12-08T13:05:26.176Z,5.78
2022-12-08T13:07:56.799Z,3.33
2022-12-08T13:10:27.611Z,4.78
2022-12-08T13:13:08.747Z,3.63
2022-12-08T13:15:39.583Z,4.78
2022-12-08T13:18:08.675Z,5.72
2022-12-08T13:20:47.393Z,5.00
2022-12-08T13:23:29.266Z,4.50
2022-12-08T13:26:18.564Z,4.95
2022-12-08T13:29:14.126Z,5.13
2022-12-08T13:31:49.858Z,4.03
2022-12-08T13:34:22.750Z,3.92
2022-12-08T13:37:09.095Z,6.70
2022-12-08T13:39:43.349Z,4.80
2022-12-08T13:42:20.595Z,5.47
2022-12-08T13:48:13.628Z,3.08
2022-12-08T13:54:42.489Z,4.30
2022-12-08T13:59:25.448Z,5.97
2022-12-08T14:01:57.045Z,5.50
2022-12-08T14:07:14.777Z,5.00
2022-12-08T14:09:44.436Z,5.25
2022-12-08T14:12:19.491Z,4.93
2022-12-08T14:15:05.443Z,3.63
2022-12-08T14:17:34.620Z,5.20
2022-12-08T14:20:15.010Z,4.53
2022-12-08T14:22:43.142Z,5.10
2022-12-08T14:25:15.849Z,4.35
2022-12-08T14:27:44.297Z,1.98
2022-12-08T14:30:21.099Z,3.10
2022-12-08T14:32:50.639Z,1.70
2022-12-08T14:35:26.357Z,2.78
2022-12-08T14:37:56.554Z,4.07
2022-12-08T14:40:30.756Z,4.72
2022-12-08T14:43:13.733Z,4.15
2022-12-08T14:45:48.610Z,1.73
2022-12-08T14:48:20.775Z,5.90
2022-12-08T14:50:59.610Z,3.55
2022-12-08T14:53:31.340Z,2.92
2022-12-08T14:56:00.551Z,3.97
2022-12-08T14:58:31.356Z,1.95
2022-12-08T15:01:01.201Z,2.03
2022-12-08T15:03:32.078Z,2.05
2022-12-08T15:06:04.200Z,3.28
2022-12-08T15:08:32.740Z,3.45
2022-12-08T15:11:28.249Z,5.97
2022-12-08T15:13:56.224Z,3.55
2022-12-08T15:16:27.914Z,4.20
2022-12-08T15:19:05.457Z,4.90
2022-12-08T15:21:39.078Z,3.15
2022-12-08T15:24:07.562Z,4.75
2022-12-08T15:26:42.401Z,2.40
2022-12-08T15:29:17.706Z,5.28
2022-12-08T15:31:45.622Z,4.28
2022-12-08T15:34:13.445Z,5.03
2022-12-08T15:36:42.927Z,5.95
2022-12-08T15:39:22.559Z,6.45
2022-12-08T15:41:51.689Z,6.72
2022-12-08T15:44:19.580Z,6.00
2022-12-08T15:46:47.349Z,6.50
2022-12-08T15:49:18.622Z,6.90
2022-12-08T15:51:46.586Z,6.57
2022-12-08T15:54:14.400Z,6.65
2022-12-08T15:57:10.822Z,7.55
2022-12-08T15:59:35.404Z,8.25
2022-12-08T16:02:03.225Z,6.72
2022-12-08T16:07:26.985Z,6.97
2022-12-08T16:09:56.170Z,6.78
2022-12-08T16:18:28.487Z,7.20
2022-12-08T16:23:45.677Z,8.95
2022-12-08T16:26:35.613Z,9.27
2022-12-08T16:29:05.542Z,3.55
2022-12-08T16:31:35.149Z,7.28
2022-12-08T16:34:03.122Z,7.03
2022-12-08T16:36:30.862Z,7.95
2022-12-08T16:38:58.653Z,5.30
2022-12-08T16:41:44.124Z,7.13
2022-12-08T16:44:11.921Z,3.85
2022-12-08T16:46:41.039Z,6.15
2022-12-08T16:49:10.119Z,6.47
2022-12-08T16:51:37.941Z,7.03
2022-12-08T16:54:05.790Z,7.18
2022-12-08T16:56:33.889Z,7.88
2022-12-08T16:59:02.664Z,8.82
2022-12-08T17:01:30.550Z,8.93
2022-12-08T17:04:30.930Z,8.43
2022-12-08T17:06:47.717Z,7.43
2022-12-08T17:09:15.515Z,9.02
2022-12-08T17:11:44.001Z,9.02
2022-12-08T17:14:12.296Z,8.75
2022-12-08T17:16:40.205Z,7.63
2022-12-08T17:19:09.573Z,8.32
2022-12-08T17:21:37.377Z,9.35
2022-12-08T17:24:05.330Z,7.70
2022-12-08T17:26:33.161Z,7.68
2022-12-08T17:29:02.812Z,9.85
2022-12-08T17:31:32.237Z,11.38
2022-12-08T17:34:00.901Z,10.98
2022-12-08T17:36:30.435Z,9.63
2022-12-08T17:39:00.552Z,8.02
2022-12-08T17:41:29.185Z,8.05
2022-12-08T17:43:57.044Z,7.57
2022-12-08T17:46:24.959Z,6.50
2022-12-08T17:48:53.000Z,6.82
2022-12-08T17:51:20.838Z,8.35
2022-12-08T17:53:49.967Z,7.15
2022-12-08T17:56:20.064Z,7.15
2022-12-08T17:58:54.045Z,10.25
2022-12-08T18:01:22.893Z,6.45
2022-12-08T18:03:50.835Z,7.35
2022-12-08T18:06:18.571Z,7.97
2022-12-08T18:08:46.401Z,6.80
2022-12-08T18:11:18.212Z,7.60
2022-12-08T18:13:46.647Z,7.20
2022-12-08T18:16:15.200Z,7.00
2022-12-08T18:18:43.071Z,8.07
2022-12-08T18:21:11.717Z,6.88
2022-12-08T18:23:40.493Z,6.72
2022-12-08T18:26:09.508Z,7.25
2022-12-08T18:28:39.024Z,6.22
2022-12-08T18:31:10.160Z,7.55
2022-12-08T18:33:38.249Z,8.07
2022-12-08T18:36:09.312Z,7.35
2022-12-08T18:38:37.327Z,6.45
2022-12-08T18:41:06.743Z,7.47
2022-12-08T18:43:34.720Z,8.60
2022-12-08T18:46:05.547Z,7.45
2022-12-08T18:48:33.389Z,8.23
2022-12-08T18:51:01.149Z,7.45
2022-12-08T18:53:29.059Z,9.68
2022-12-08T18:55:56.777Z,7.88
2022-12-08T18:58:26.767Z,9.05
2022-12-08T19:00:54.541Z,9.15
2022-12-08T19:03:23.643Z,9.07
2022-12-08T19:05:51.444Z,9.82
2022-12-08T19:08:19.519Z,9.60
2022-12-08T19:10:47.364Z,11.07
2022-12-08T19:13:15.035Z,10.90
2022-12-08T19:15:42.736Z,10.77
2022-12-08T19:18:10.577Z,12.65
2022-12-08T19:20:39.640Z,11.73
2022-12-08T19:23:07.432Z,12.40
2022-12-08T19:25:35.180Z,11.45
2022-12-08T19:28:03.386Z,10.95
2022-12-08T19:30:32.203Z,12.95
2022-12-08T19:33:00.129Z,12.23
2022-12-08T19:35:30.291Z,11.45
2022-12-08T19:37:59.463Z,11.27
2022-12-08T19:40:41.384Z,11.98
2022-12-08T19:43:34.476Z,10.95
2022-12-08T19:46:08.271Z,11.00
2022-12-08T19:48:38.061Z,11.90
2022-12-08T19:51:06.263Z,11.68
2022-12-08T19:53:35.383Z,10.50
2022-12-08T19:56:03.260Z,10.35
2022-12-08T19:58:31.114Z,10.73
2022-12-08T20:00:59.000Z,11.00
2022-12-08T20:03:26.939Z,9.90
2022-12-08T20:05:54.855Z,12.50
2022-12-08T20:08:22.781Z,12.00
2022-12-08T20:10:55.827Z,12.43
2022-12-08T20:13:41.012Z,12.10
2022-12-08T20:16:09.880Z,12.35
2022-12-08T20:18:38.429Z,12.32
2022-12-08T20:21:07.622Z,14.25
2022-12-08T20:23:35.804Z,13.57
2022-12-08T20:26:07.176Z,11.68
2022-12-08T20:28:35.359Z,14.00
2022-12-08T20:31:03.648Z,13.10
2022-12-08T20:33:34.468Z,13.00
2022-12-08T20:36:07.425Z,13.20
2022-12-08T20:38:35.202Z,12.80
2022-12-08T20:41:02.949Z,10.27
2022-12-08T20:43:32.005Z,14.50
2022-12-08T20:45:59.852Z,12.57
2022-12-08T20:48:27.862Z,11.18
2022-12-08T20:50:55.899Z,13.38
2022-12-08T20:53:23.805Z,13.18
2022-12-08T20:55:51.841Z,12.65
2022-12-08T20:58:19.657Z,12.75
2022-12-08T21:00:49.207Z,10.35
2022-12-08T21:03:20.966Z,12.75
2022-12-08T21:05:50.314Z,14.48
2022-12-08T21:08:19.225Z,12.52
2022-12-08T21:10:53.487Z,11.07
2022-12-08T21:13:21.546Z,12.82
2022-12-08T21:15:51.015Z,12.32
2022-12-08T21:18:18.990Z,11.30
2022-12-08T21:20:48.211Z,11.70
2022-12-08T21:23:17.160Z,12.52
2022-12-08T21:25:47.280Z,13.02
2022-12-08T21:28:15.398Z,11.82
2022-12-08T21:30:43.823Z,11.68
2022-12-08T21:33:13.024Z,11.82
2022-12-08T21:35:41.262Z,11.38
2022-12-08T21:38:09.296Z,12.02
2022-12-08T21:40:37.710Z,11.48
2022-12-08T21:43:05.706Z,11.60
2022-12-08T21:45:35.010Z,12.45
2022-12-08T21:48:10.842Z,11.00
2022-12-08T21:50:41.092Z,14.60
2022-12-08T21:53:09.100Z,11.55
2022-12-08T21:55:37.218Z,11.05
2022-12-08T21:58:05.596Z,10.73
2022-12-08T22:00:33.491Z,13.32
2022-12-08T22:03:01.565Z,11.75
2022-12-08T22:05:29.586Z,10.20
2022-12-08T22:07:58.853Z,10.82
2022-12-08T22:10:26.733Z,12.07
2022-12-08T22:12:54.607Z,12.77
2022-12-08T22:15:22.429Z,12.20
2022-12-08T22:17:50.421Z,12.27
2022-12-08T22:20:18.708Z,10.95
2022-12-08T22:22:46.907Z,12.25
2022-12-08T22:25:16.192Z,12.00
2022-12-08T22:27:44.021Z,11.45
2022-12-08T22:30:12.727Z,12.77
2022-12-08T22:32:40.776Z,12.07
2022-12-08T22:35:09.466Z,11.43
2022-12-08T22:37:37.482Z,12.98
2022-12-08T22:40:06.680Z,11.20
2022-12-08T22:42:35.840Z,11.93
2022-12-08T22:45:03.549Z,12.75
2022-12-08T22:47:31.254Z,10.35
2022-12-08T22:49:58.926Z,10.23
2022-12-08T22:52:26.626Z,11.98
2022-12-08T22:54:54.452Z,11.95
2022-12-08T22:57:22.314Z,10.35
2022-12-08T22:59:51.461Z,12.25
2022-12-08T23:02:19.279Z,11.70
2022-12-08T23:04:47.310Z,10.30
2022-12-08T23:07:15.279Z,11.10
2022-12-08T23:09:43.505Z,11.63
2022-12-08T23:12:11.235Z,11.50
2022-12-08T23:14:39.065Z,11.35
2022-12-08T23:17:08.331Z,11.60
2022-12-08T23:19:36.916Z,10.65
2022-12-08T23:22:04.683Z,10.38
2022-12-08T23:24:32.491Z,12.65
2022-12-08T23:27:00.302Z,15.30
2022-12-08T23:29:28.002Z,15.32
2022-12-08T23:31:55.993Z,13.27
2022-12-08T23:34:25.103Z,12.77
2022-12-08T23:36:52.976Z,13.10
2022-12-08T23:39:24.127Z,12.23
2022-12-08T23:41:52.236Z,13.05
2022-12-08T23:44:20.234Z,14.93
2022-12-08T23:46:48.083Z,13.18
2022-12-08T23:49:17.001Z,14.60
2022-12-08T23:51:46.155Z,13.32
2022-12-08T23:54:14.208Z,13.40
2022-12-08T23:56:42.210Z,13.13
2022-12-08T23:59:10.474Z,13.23
